Time;durP1;ratioP1;P1;durP2;ratioP2;P2;SDS_P1;SDS_P2;PMS_P1;PMS_P2;Temp;Humidity;BMP_temperature;BMP_pressure;BME280_temperature;BME280_humidity;BME280_pressure;Samples;Min_cycle;Max_cycle;Signal;HPM_P1;HPM_P2
2022/05/04 00:01:56;;;;;;;7.00;4.05;;;;;;;;;;5041330;28;20132;-82
2022/05/04 00:04:22;;;;;;;9.75;4.32;;;;;;;;;;5052429;28;20617;-83
2022/05/04 00:06:47;;;;;;;7.15;4.88;;;;;;;;;;5050599;28;20563;-83
2022/05/04 00:09:13;;;;;;;5.60;3.78;;;;;;;;;;5051565;28;20025;-82
2022/05/04 00:11:40;;;;;;;8.77;4.45;;;;;;;;;;5048662;28;20044;-83
2022/05/04 00:14:06;;;;;;;7.65;4.72;;;12.50;99.90;;;;;;5048635;28;20025;-83
2022/05/04 00:16:31;;;;;;;7.20;4.63;;;;;;;;;;5044441;28;20505;-80
2022/05/04 00:18:57;;;;;;;9.50;4.63;;;;;;;;;;5048140;28;20025;-82
2022/05/04 00:21:23;;;;;;;6.88;4.25;;;;;;;;;;5055627;28;20037;-82
2022/05/04 00:23:49;;;;;;;9.25;5.18;;;;;;;;;;5049269;28;20025;-82
2022/05/04 00:26:15;;;;;;;8.70;4.55;;;;;;;;;;5044150;28;20226;-83
2022/05/04 00:28:41;;;;;;;8.13;4.28;;;;;;;;;;5051873;28;20071;-83
2022/05/04 00:31:07;;;;;;;6.03;4.18;;;;;;;;;;5053484;28;20040;-82
2022/05/04 00:33:33;;;;;;;9.82;3.97;;;;;;;;;;5048955;28;20337;-83
2022/05/04 00:35:59;;;;;;;8.63;4.45;;;;;;;;;;5048204;28;20035;-82
2022/05/04 00:38:25;;;;;;;6.47;3.47;;;;;;;;;;5050261;28;20037;-83
2022/05/04 00:40:51;;;;;;;6.97;4.25;;;;;;;;;;5050811;28;20041;-83
2022/05/04 00:43:24;;;;;;;8.73;5.55;;;;;;;;;;5049806;28;20033;-81
2022/05/04 00:45:51;;;;;;;6.32;4.18;;;;;;;;;;5056573;28;20032;-83
2022/05/04 00:48:17;;;;;;;5.80;3.72;;;;;;;;;;5041558;28;20022;-82
2022/05/04 00:50:44;;;;;;;8.00;4.63;;;11.80;99.90;;;;;;5050411;28;20108;-82
2022/05/04 00:53:11;;;;;;;8.00;4.20;;;;;;;;;;5044738;28;20619;-81
2022/05/04 00:55:37;;;;;;;5.85;3.80;;;;;;;;;;5048827;28;20396;-82
2022/05/04 01:01:05;;;;;;;7.20;4.40;;;;;;;;;;4979361;28;20104;-83
2022/05/04 01:03:31;;;;;;;10.20;4.40;;;;;;;;;;5024726;28;20040;-81
2022/05/04 01:05:57;;;;;;;6.47;4.13;;;;;;;;;;5051657;28;20029;-81
2022/05/04 01:08:23;;;;;;;6.60;3.90;;;;;;;;;;5044498;28;20048;-82
2022/05/04 01:10:49;;;;;;;5.70;3.05;;;;;;;;;;5049512;28;20025;-82
2022/05/04 01:13:18;;;;;;;6.07;4.20;;;;;;;;;;5054184;28;20488;-81
2022/05/04 01:15:44;;;;;;;7.25;5.05;;;;;;;;;;5046756;28;20025;-82
2022/05/04 01:18:10;;;;;;;10.13;5.15;;;;;;;;;;5051865;28;20028;-81
2022/05/04 01:20:36;;;;;;;13.30;6.15;;;;;;;;;;5050225;28;20070;-82
2022/05/04 01:23:02;;;;;;;13.68;6.50;;;;;;;;;;5052029;28;20036;-82
2022/05/04 01:25:28;;;;;;;7.75;4.95;;;;;;;;;;5047529;28;20033;-81
2022/05/04 01:27:55;;;;;;;8.38;4.55;;;;;;;;;;5053139;28;20025;-82
2022/05/04 01:30:21;;;;;;;15.90;5.80;;;;;;;;;;5048597;28;20035;-82
2022/05/04 01:32:47;;;;;;;14.18;6.72;;;;;;;;;;5047857;28;21444;-81
2022/05/04 01:35:14;;;;;;;9.82;5.32;;;;;;;;;;5048342;28;20088;-81
2022/05/04 01:37:40;;;;;;;9.70;5.60;;;;;;;;;;5052995;28;20048;-82
2022/05/04 01:40:07;;;;;;;9.48;5.20;;;;;;;;;;5051135;28;20064;-83
2022/05/04 01:42:33;;;;;;;7.82;4.22;;;;;;;;;;5054710;28;20045;-84
2022/05/04 01:44:58;;;;;;;7.63;4.55;;;;;;;;;;5058337;28;20029;-84
2022/05/04 01:47:24;;;;;;;4.95;3.25;;;;;;;;;;5053937;28;20124;-82
2022/05/04 01:49:50;;;;;;;11.40;4.32;;;;;;;;;;5049395;28;20033;-81
2022/05/04 01:52:16;;;;;;;7.82;4.20;;;;;;;;;;5050574;28;20039;-81
2022/05/04 01:54:42;;;;;;;8.35;4.57;;;;;;;;;;5049975;28;20025;-81
2022/05/04 01:57:08;;;;;;;10.00;5.25;;;;;;;;;;5052246;28;20040;-82
2022/05/04 01:59:34;;;;;;;7.05;4.93;;;;;;;;;;5051678;28;20028;-82
2022/05/04 02:02:00;;;;;;;8.95;4.78;;;;;;;;;;5047809;28;20036;-84
2022/05/04 02:04:26;;;;;;;8.88;4.78;;;11.90;99.90;;;;;;5046268;28;20033;-83
2022/05/04 02:06:52;;;;;;;6.82;4.18;;;;;;;;;;5051760;28;20029;-82
2022/05/04 02:09:18;;;;;;;9.80;4.07;;;;;;;;;;5049570;28;20053;-83
2022/05/04 02:11:44;;;;;;;6.93;3.83;;;;;;;;;;5050757;28;20033;-83
2022/05/04 02:14:10;;;;;;;8.98;5.60;;;11.80;99.90;;;;;;5050817;28;20033;-81
2022/05/04 02:16:36;;;;;;;7.85;4.65;;;;;;;;;;5049757;28;20032;-81
2022/05/04 02:19:02;;;;;;;7.63;4.57;;;;;;;;;;5050616;28;20047;-83
2022/05/04 02:21:28;;;;;;;6.85;4.07;;;;;;;;;;5053234;28;20169;-82
2022/05/04 02:23:54;;;;;;;12.48;5.15;;;;;;;;;;5051306;28;20032;-82
2022/05/04 02:26:20;;;;;;;9.32;5.50;;;;;;;;;;5057170;28;20026;-83
2022/05/04 02:28:46;;;;;;;10.70;5.78;;;;;;;;;;5055336;28;20035;-82
2022/05/04 02:31:12;;;;;;;8.68;4.50;;;;;;;;;;5054289;28;20037;-84
2022/05/04 02:33:38;;;;;;;14.85;5.43;;;;;;;;;;5050951;28;20095;-83
2022/05/04 02:38:49;;;;;;;11.93;5.28;;;;;;;;;;5047782;28;20076;-83
2022/05/04 02:41:15;;;;;;;9.70;5.10;;;;;;;;;;5056423;28;20041;-82
2022/05/04 02:43:41;;;;;;;10.02;5.32;;;;;;;;;;5052983;28;20515;-82
2022/05/04 02:46:17;;;;;;;10.38;5.20;;;;;;;;;;5054515;28;20067;-81
2022/05/04 02:48:43;;;;;;;8.57;5.30;;;;;;;;;;5051605;28;20025;-81
2022/05/04 02:51:09;;;;;;;12.32;5.18;;;;;;;;;;5050420;28;20116;-80
2022/05/04 02:53:35;;;;;;;12.43;6.40;;;;;;;;;;5051192;28;20075;-82
2022/05/04 02:56:01;;;;;;;9.32;5.75;;;;;;;;;;5054694;28;20036;-80
2022/05/04 02:58:27;;;;;;;7.80;4.35;;;;;;;;;;5060434;28;20029;-81
2022/05/04 03:00:53;;;;;;;10.48;5.07;;;11.90;99.90;;;;;;5052446;28;20033;-81
2022/05/04 03:03:19;;;;;;;13.10;5.63;;;;;;;;;;5051765;28;20562;-82
2022/05/04 03:05:45;;;;;;;13.35;7.10;;;;;;;;;;5055226;28;20088;-83
2022/05/04 03:08:11;;;;;;;10.15;5.68;;;;;;;;;;5054234;28;20028;-83
2022/05/04 03:13:22;;;;;;;11.70;6.38;;;;;;;;;;5055123;28;20089;-82
2022/05/04 03:15:48;;;;;;;9.68;5.30;;;;;;;;;;5055280;28;20021;-82
2022/05/04 03:18:14;;;;;;;8.00;4.72;;;;;;;;;;5049032;28;20033;-83
2022/05/04 03:20:40;;;;;;;11.10;5.05;;;;;;;;;;5056380;28;20040;-81
2022/05/04 03:23:06;;;;;;;8.60;5.28;;;;;;;;;;5049928;28;20021;-80
2022/05/04 03:25:32;;;;;;;9.40;5.38;;;;;;;;;;5053518;28;20168;-82
2022/05/04 03:27:58;;;;;;;12.35;6.55;;;;;;;;;;5055476;28;20029;-83
2022/05/04 03:30:23;;;;;;;17.17;6.53;;;;;;;;;;5056377;28;20071;-82
2022/05/04 03:32:49;;;;;;;10.52;6.18;;;;;;;;;;5054631;28;20021;-83
2022/05/04 03:35:17;;;;;;;13.77;7.13;;;;;;;;;;5050181;28;20044;-82
2022/05/04 03:37:42;;;;;;;12.05;6.75;;;;;;;;;;5048358;28;20026;-82
2022/05/04 03:40:10;;;;;;;8.35;5.22;;;;;;;;;;5052858;28;20044;-81
2022/05/04 03:42:36;;;;;;;9.68;5.53;;;;;;;;;;5052531;28;20033;-82
2022/05/04 03:45:02;;;;;;;10.70;5.20;;;;;;;;;;5049031;28;20041;-81
2022/05/04 03:47:28;;;;;;;9.95;5.35;;;;;;;;;;5051819;28;20031;-82
2022/05/04 03:49:54;;;;;;;7.38;4.30;;;;;;;;;;5045280;28;20040;-83
2022/05/04 03:52:21;;;;;;;12.20;6.75;;;;;;;;;;5054715;28;20351;-82
2022/05/04 03:54:47;;;;;;;11.15;6.13;;;;;;;;;;5049043;28;20056;-83
2022/05/04 03:57:13;;;;;;;10.23;6.20;;;;;;;;;;5047427;28;20030;-82
2022/05/04 03:59:39;;;;;;;12.15;6.25;;;;;;;;;;5051074;28;20392;-83
2022/05/04 04:02:05;;;;;;;12.70;6.65;;;;;;;;;;5051541;28;20037;-83
2022/05/04 04:04:31;;;;;;;12.63;8.13;;;;;;;;;;5053656;28;20028;-82
2022/05/04 04:06:57;;;;;;;12.90;8.07;;;;;;;;;;5053920;28;20039;-81
2022/05/04 04:09:23;;;;;;;14.77;7.30;;;;;;;;;;5049631;28;20033;-81
2022/05/04 04:11:49;;;;;;;14.98;6.63;;;;;;;;;;5055058;28;20098;-82
2022/05/04 04:14:15;;;;;;;8.73;5.45;;;;;;;;;;5050997;28;20051;-82
2022/05/04 04:16:41;;;;;;;10.25;6.40;;;;;;;;;;5053263;28;20128;-82
2022/05/04 04:19:09;;;;;;;11.13;6.10;;;;;;;;;;5051976;28;20044;-82
2022/05/04 04:21:53;;;;;;;9.07;4.97;;;;;;;;;;5052287;28;20036;-83
2022/05/04 04:24:22;;;;;;;10.85;6.10;;;;;;;;;;5055406;28;20017;-83
2022/05/04 04:26:48;;;;;;;11.18;5.53;;;;;;;;;;5054161;28;20025;-81
2022/05/04 04:29:14;;;;;;;8.25;4.50;;;10.70;99.90;;;;;;5052056;28;20023;-81
2022/05/04 04:31:40;;;;;;;8.80;4.97;;;;;;;;;;5048304;28;20111;-81
2022/05/04 04:34:07;;;;;;;12.63;4.88;;;;;;;;;;5044104;28;20027;-85
2022/05/04 04:36:33;;;;;;;6.38;4.45;;;;;;;;;;5042310;28;20029;-81
2022/05/04 04:38:59;;;;;;;7.80;3.88;;;;;;;;;;5038835;28;20112;-83
2022/05/04 04:41:25;;;;;;;9.60;4.68;;;;;;;;;;5033346;28;20280;-83
2022/05/04 04:43:51;;;;;;;9.15;4.63;;;;;;;;;;5043392;28;20021;-82
2022/05/04 04:46:17;;;;;;;7.50;4.70;;;;;;;;;;5043146;28;20037;-83
2022/05/04 04:48:43;;;;;;;8.90;5.30;;;;;;;;;;5038634;28;20084;-83
2022/05/04 04:51:09;;;;;;;8.00;5.05;;;;;;;;;;5051861;28;20579;-81
2022/05/04 04:53:34;;;;;;;8.70;4.90;;;;;;;;;;5046744;28;20088;-80
2022/05/04 04:56:01;;;;;;;6.72;4.20;;;;;;;;;;5044117;28;20883;-80
2022/05/04 04:58:27;;;;;;;6.95;3.88;;;;;;;;;;5041121;28;20028;-82
2022/05/04 05:00:53;;;;;;;9.73;5.28;;;;;;;;;;5045701;28;20037;-82
2022/05/04 05:03:18;;;;;;;7.45;3.92;;;;;;;;;;5052505;28;20032;-81
2022/05/04 05:05:44;;;;;;;13.40;4.65;;;;;;;;;;5043287;28;20025;-82
2022/05/04 05:08:12;;;;;;;8.77;4.60;;;;;;;;;;5050873;28;20055;-81
2022/05/04 05:10:38;;;;;;;9.93;4.15;;;;;;;;;;5041422;28;20025;-80
2022/05/04 05:13:05;;;;;;;6.22;3.47;;;;;;;;;;5049573;28;20028;-82
2022/05/04 05:18:18;;;;;;;6.88;3.25;;;;;;;;;;5057661;28;20052;-80
2022/05/04 05:20:44;;;;;;;5.95;3.53;;;;;;;;;;5056261;28;20037;-80
2022/05/04 05:23:10;;;;;;;8.70;4.55;;;;;;;;;;5061318;28;20093;-79
2022/05/04 05:25:36;;;;;;;10.00;5.22;;;;;;;;;;5046295;28;20032;-81
2022/05/04 05:28:02;;;;;;;6.60;4.00;;;;;;;;;;5048319;28;20029;-81
2022/05/04 05:30:28;;;;;;;11.68;4.18;;;;;;;;;;5057833;28;20028;-80
2022/05/04 05:32:54;;;;;;;7.13;4.50;;;;;;;;;;5053106;28;20044;-81
2022/05/04 05:35:20;;;;;;;8.15;4.45;;;;;;;;;;5051964;28;20040;-80
2022/05/04 05:37:46;;;;;;;7.38;4.22;;;;;;;;;;5054032;28;20033;-80
2022/05/04 05:40:13;;;;;;;7.57;4.82;;;;;;;;;;5056343;28;20041;-82
2022/05/04 05:42:39;;;;;;;8.23;4.53;;;;;;;;;;5056465;28;20020;-79
2022/05/04 05:45:06;;;;;;;6.10;4.35;;;;;;;;;;5049624;28;20044;-79
2022/05/04 05:47:32;;;;;;;8.60;5.63;;;;;;;;;;5049171;28;20021;-83
2022/05/04 05:49:58;;;;;;;6.68;4.30;;;;;;;;;;5051176;28;20078;-80
2022/05/04 05:52:24;;;;;;;6.90;4.35;;;13.10;99.90;;;;;;5048164;28;20021;-80
2022/05/04 05:54:51;;;;;;;5.00;3.30;;;;;;;;;;5050359;28;20362;-79
2022/05/04 05:57:17;;;;;;;6.55;4.15;;;;;;;;;;5050223;28;20186;-79
2022/05/04 05:59:43;;;;;;;6.10;3.45;;;;;;;;;;5050048;28;20070;-79
2022/05/04 06:02:09;;;;;;;4.95;3.13;;;;;;;;;;5043881;28;20068;-80
2022/05/04 06:04:35;;;;;;;4.90;3.35;;;;;;;;;;5051492;28;20025;-81
2022/05/04 06:07:01;;;;;;;4.05;2.55;;;;;;;;;;5049480;28;20032;-80
2022/05/04 06:09:27;;;;;;;5.30;2.78;;;;;;;;;;5046704;28;20025;-80
2022/05/04 06:11:53;;;;;;;5.95;3.55;;;;;;;;;;5046847;28;20032;-79
2022/05/04 06:14:19;;;;;;;7.28;4.63;;;;;;;;;;5049361;28;20024;-79
2022/05/04 06:16:45;;;;;;;5.65;3.67;;;;;;;;;;5041779;28;20038;-81
2022/05/04 06:19:11;;;;;;;5.10;4.25;;;;;;;;;;5043630;28;20021;-81
2022/05/04 06:21:37;;;;;;;6.15;3.80;;;;;;;;;;5053400;28;20123;-80
2022/05/04 06:24:03;;;;;;;4.30;3.60;;;;;;;;;;5046763;28;21959;-79
2022/05/04 06:26:30;;;;;;;4.45;3.20;;;;;;;;;;5051006;28;20071;-80
2022/05/04 06:28:56;;;;;;;8.77;4.60;;;;;;;;;;5044206;28;20103;-79
2022/05/04 06:34:06;;;;;;;6.43;3.67;;;;;;;;;;5051852;28;20148;-79
2022/05/04 06:36:33;;;;;;;5.95;3.40;;;;;;;;;;5046622;28;20049;-79
2022/05/04 06:38:59;;;;;;;4.28;3.33;;;;;;;;;;5051592;28;20048;-80
2022/05/04 06:41:25;;;;;;;4.78;2.78;;;;;;;;;;5047985;28;20037;-79
2022/05/04 06:43:51;;;;;;;4.28;3.05;;;;;;;;;;5052050;28;20408;-80
2022/05/04 06:46:17;;;;;;;4.80;2.80;;;;;;;;;;5051426;28;20046;-80
2022/05/04 06:48:45;;;;;;;4.95;2.70;;;;;;;;;;5055150;28;20041;-80
2022/05/04 06:51:11;;;;;;;5.43;3.83;;;;;;;;;;5051315;28;20033;-82
2022/05/04 06:53:37;;;;;;;6.57;3.45;;;;;;;;;;5057311;28;20040;-80
2022/05/04 06:56:03;;;;;;;6.30;3.83;;;;;;;;;;5052725;28;20065;-81
2022/05/04 06:58:29;;;;;;;4.00;2.60;;;;;;;;;;5060525;28;20037;-80
2022/05/04 07:00:55;;;;;;;5.75;2.95;;;;;;;;;;5055276;28;20045;-81
2022/05/04 07:03:21;;;;;;;5.10;3.78;;;;;;;;;;5060116;28;20029;-80
2022/05/04 07:05:47;;;;;;;4.57;2.97;;;;;;;;;;5054322;28;20021;-80
2022/05/04 07:08:13;;;;;;;6.53;3.45;;;;;;;;;;5055177;28;20094;-80
2022/05/04 07:10:39;;;;;;;4.20;2.78;;;;;;;;;;5053056;28;20032;-83
2022/05/04 07:13:06;;;;;;;4.80;3.20;;;;;;;;;;5054014;28;20025;-82
2022/05/04 07:15:32;;;;;;;4.75;3.00;;;;;;;;;;5050120;28;20024;-80
2022/05/04 07:17:58;;;;;;;5.25;3.13;;;;;;;;;;5050367;28;20036;-81
2022/05/04 07:20:24;;;;;;;6.18;3.80;;;;;;;;;;5056581;28;20425;-80
2022/05/04 07:22:50;;;;;;;5.00;2.90;;;;;;;;;;5058248;28;20025;-81
2022/05/04 07:25:16;;;;;;;5.60;3.22;;;;;;;;;;5054748;28;20032;-79
2022/05/04 07:27:42;;;;;;;8.25;3.85;;;;;;;;;;5056665;28;20518;-81
2022/05/04 07:30:09;;;;;;;6.95;3.58;;;;;;;;;;5055799;28;20095;-82
2022/05/04 07:32:35;;;;;;;5.93;3.72;;;;;;;;;;5052252;28;20048;-80
2022/05/04 07:35:01;;;;;;;5.93;3.50;;;;;;;;;;5052473;28;20029;-82
2022/05/04 07:37:27;;;;;;;6.80;4.20;;;;;;;;;;5052151;28;20021;-81
2022/05/04 07:42:40;;;;;;;5.75;4.03;;;;;;;;;;5050989;28;20039;-80
2022/05/04 07:45:08;;;;;;;7.15;3.92;;;;;;;;;;5051811;28;20114;-81
2022/05/04 07:47:35;;;;;;;11.63;5.82;;;;;;;;;;5055762;28;20022;-79
2022/05/04 07:50:01;;;;;;;7.18;4.72;;;;;;;;;;5056884;28;20029;-81
2022/05/04 07:52:27;;;;;;;9.48;5.18;;;;;;;;;;5054524;28;20036;-81
2022/05/04 07:54:53;;;;;;;6.22;3.95;;;;;;;;;;5055296;28;20021;-82
2022/05/04 07:57:19;;;;;;;10.38;4.72;;;;;;;;;;5059653;28;20461;-80
2022/05/04 08:04:16;;;;;;;6.57;4.00;;;;;;;;;;5058152;28;20480;-82
2022/05/04 08:05:17;;;;;;;7.25;4.35;;;;;;;;;;5060485;28;20048;-81
2022/05/04 08:07:43;;;;;;;8.63;4.95;;;;;;;;;;5055790;28;20083;-79
2022/05/04 08:10:09;;;;;;;7.35;4.47;;;;;;;;;;5054124;28;20045;-80
2022/05/04 08:12:35;;;;;;;10.80;5.50;;;;;;;;;;5055605;28;20421;-79
2022/05/04 08:15:01;;;;;;;6.65;4.03;;;;;;;;;;5053618;28;20025;-81
2022/05/04 08:17:27;;;;;;;7.43;4.63;;;;;;;;;;5054533;28;20205;-80
2022/05/04 08:19:53;;;;;;;7.53;4.72;;;;;;;;;;5054753;28;20048;-81
2022/05/04 08:22:19;;;;;;;8.82;4.95;;;;;;;;;;5050900;28;20037;-80
2022/05/04 08:24:46;;;;;;;8.50;4.55;;;;;;;;;;5047092;28;20394;-81
2022/05/04 08:27:12;;;;;;;8.95;5.20;;;;;;;;;;5051941;28;20033;-82
2022/05/04 08:29:38;;;;;;;8.80;5.63;;;;;;;;;;5051537;28;20238;-80
2022/05/04 08:32:04;;;;;;;6.43;4.65;;;;;;;;;;5051500;28;20021;-80
2022/05/04 08:34:30;;;;;;;8.68;5.03;;;;;;;;;;5055520;28;20469;-81
2022/05/04 08:36:56;;;;;;;7.35;5.10;;;;;;;;;;5051760;28;20088;-80
2022/05/04 08:39:21;;;;;;;9.43;4.85;;;19.50;99.90;;;;;;5057130;28;20029;-80
2022/05/04 08:41:47;;;;;;;9.10;6.05;;;;;;;;;;5049939;28;20150;-81
2022/05/04 08:44:13;;;;;;;7.28;4.22;;;;;;;;;;5056416;28;20040;-81
2022/05/04 08:46:40;;;;;;;6.88;4.20;;;;;;;;;;5054771;28;20033;-81
2022/05/04 08:49:07;;;;;;;8.90;3.92;;;22.70;99.90;;;;;;5053786;28;20416;-79
2022/05/04 08:51:35;;;;;;;6.32;4.70;;;24.10;99.40;;;;;;5055452;28;20029;-79
2022/05/04 08:54:03;;;;;;;6.95;4.05;;;24.00;98.40;;;;;;5050942;28;20026;-80
2022/05/04 08:56:29;;;;;;;9.20;4.45;;;;;;;;;;5056516;28;20021;-80
2022/05/04 08:58:55;;;;;;;5.57;3.40;;;;;;;;;;5056101;28;20135;-80
2022/05/04 09:01:20;;;;;;;7.43;3.40;;;23.70;99.90;;;;;;5053584;28;20064;-80
2022/05/04 09:03:46;;;;;;;8.38;4.78;;;;;;;;;;5053167;28;20033;-82
2022/05/04 09:06:23;;;;;;;5.00;4.00;;;;;;;;;;5055749;28;20155;-79
2022/05/04 09:08:53;;;;;;;6.65;4.20;;;;;;;;;;5055098;28;20021;-80
2022/05/04 09:11:21;;;;;;;6.93;4.20;;;;;;;;;;5056054;28;20044;-80
2022/05/04 09:13:47;;;;;;;5.63;4.13;;;;;;;;;;5051501;28;20025;-81
2022/05/04 09:16:34;;;;;;;7.70;4.78;;;;;;;;;;5049934;28;20037;-80
2022/05/04 09:19:01;;;;;;;7.00;3.75;;;24.80;94.80;;;;;;5057401;28;20021;-79
2022/05/04 09:21:27;;;;;;;6.07;3.78;;;;;;;;;;5051356;28;20029;-80
2022/05/04 09:23:53;;;;;;;5.03;3.45;;;;;;;;;;5056399;28;20428;-79
2022/05/04 09:26:20;;;;;;;6.95;4.30;;;;;;;;;;5054382;28;20035;-79
2022/05/04 09:28:51;;;;;;;5.70;3.75;;;;;;;;;;5060780;28;20033;-80
2022/05/04 09:31:20;;;;;;;7.50;3.85;;;;;;;;;;5052313;28;20025;-80
2022/05/04 09:33:52;;;;;;;4.95;3.47;;;;;;;;;;5050386;28;20152;-79
2022/05/04 09:36:30;;;;;;;5.85;4.07;;;;;;;;;;5053587;28;20093;-80
2022/05/04 09:47:18;;;;;;;5.18;3.75;;;;;;;;;;5045197;28;20060;-79
2022/05/04 09:49:46;;;;;;;9.52;4.18;;;;;;;;;;5052531;28;20043;-79
2022/05/04 09:52:14;;;;;;;7.13;3.88;;;;;;;;;;5053713;28;20033;-80
2022/05/04 09:54:40;;;;;;;5.28;3.30;;;;;;;;;;5047811;28;20119;-79
2022/05/04 09:57:07;;;;;;;5.00;3.45;;;;;;;;;;5053718;28;20372;-80
2022/05/04 09:59:34;;;;;;;5.05;3.17;;;;;;;;;;5055038;28;20014;-79
2022/05/04 10:02:02;;;;;;;4.97;3.25;;;;;;;;;;5051851;28;20049;-79
2022/05/04 10:04:28;;;;;;;7.30;3.63;;;;;;;;;;5051844;28;20088;-81
2022/05/04 10:06:55;;;;;;;4.47;3.38;;;;;;;;;;5051722;28;20040;-80
2022/05/04 10:09:22;;;;;;;4.30;2.92;;;;;;;;;;5050569;28;20037;-79
2022/05/04 10:11:53;;;;;;;4.40;2.88;;;;;;;;;;5052405;28;20384;-79
2022/05/04 10:14:20;;;;;;;6.10;3.75;;;;;;;;;;5053370;28;20017;-79
2022/05/04 10:17:04;;;;;;;8.73;3.53;;;;;;;;;;5052481;28;20340;-79
2022/05/04 10:19:41;;;;;;;6.15;3.40;;;;;;;;;;5051564;28;20420;-81
2022/05/04 10:22:10;;;;;;;5.88;3.05;;;;;;;;;;5054534;28;20099;-79
2022/05/04 10:24:37;;;;;;;6.28;3.03;;;;;;;;;;5054548;28;20025;-80
2022/05/04 10:27:15;;;;;;;3.58;2.33;;;;;;;;;;5054437;28;20132;-78
2022/05/04 10:32:29;;;;;;;5.18;3.00;;;;;;;;;;5064257;28;20044;-80
2022/05/04 10:35:12;;;;;;;6.50;3.08;;;20.70;97.60;;;;;;5057684;28;20066;-80
2022/05/04 10:37:38;;;;;;;;;;;;;;;;;;5057772;28;20431;-80
2022/05/04 10:40:06;;;;;;;4.93;3.05;;;20.70;94.30;;;;;;5061385;28;19999;-79
2022/05/04 10:42:51;;;;;;;6.13;2.95;;;;;;;;;;5059339;28;20276;-80
2022/05/04 10:45:17;;;;;;;4.70;2.88;;;;;;;;;;5053750;28;20040;-79
2022/05/04 10:47:44;;;;;;;4.45;2.67;;;;;;;;;;5054885;28;20036;-79
2022/05/04 10:50:10;;;;;;;6.55;3.08;;;;;;;;;;5052119;28;20041;-79
2022/05/04 10:52:46;;;;;;;5.47;3.28;;;;;;;;;;5056642;28;20075;-80
2022/05/04 10:55:12;;;;;;;5.43;2.72;;;;;;;;;;5049269;28;20124;-80
2022/05/04 10:57:40;;;;;;;3.92;2.75;;;;;;;;;;5055500;28;20052;-79
2022/05/04 11:00:06;;;;;;;5.78;3.80;;;21.80;95.70;;;;;;5058406;28;20056;-80
2022/05/04 11:02:32;;;;;;;5.88;2.67;;;;;;;;;;5059466;28;20065;-79
2022/05/04 11:05:11;;;;;;;7.22;2.42;;;;;;;;;;5057052;28;20021;-81
2022/05/04 11:07:37;;;;;;;10.88;2.97;;;;;;;;;;5064100;28;20025;-80
2022/05/04 11:10:02;;;;;;;5.38;2.85;;;22.50;99.90;;;;;;5062486;28;20066;-80
2022/05/04 11:12:28;;;;;;;7.78;3.75;;;23.40;94.90;;;;;;5052977;28;20021;-81
2022/05/04 11:14:54;;;;;;;4.22;2.33;;;;;;;;;;5055958;28;20551;-80
2022/05/04 11:17:20;;;;;;;5.65;2.83;;;;;;;;;;5051779;28;20525;-79
2022/05/04 11:19:47;;;;;;;4.97;2.55;;;;;;;;;;5060856;28;20056;-80
2022/05/04 11:22:13;;;;;;;4.35;2.83;;;;;;;;;;5055305;28;20412;-80
2022/05/04 11:24:39;;;;;;;4.60;2.83;;;;;;;;;;5060174;28;20031;-79
2022/05/04 11:27:06;;;;;;;5.88;2.50;;;;;;;;;;5057304;28;20524;-82
2022/05/04 11:29:33;;;;;;;3.95;2.10;;;;;;;;;;5055899;28;20025;-80
2022/05/04 11:32:01;;;;;;;7.55;2.55;;;;;;;;;;5048212;28;20021;-79
2022/05/04 11:34:33;;;;;;;3.67;2.28;;;;;;;;;;5060486;28;20106;-80
2022/05/04 11:37:02;;;;;;;5.40;2.67;;;;;;;;;;5058316;28;20082;-80
2022/05/04 11:39:29;;;;;;;6.43;2.83;;;;;;;;;;5052518;28;20763;-79
2022/05/04 11:41:56;;;;;;;2.53;1.98;;;;;;;;;;5059185;28;20110;-79
2022/05/04 11:44:22;;;;;;;3.13;1.83;;;;;;;;;;5055202;28;20033;-79
2022/05/04 11:46:49;;;;;;;4.18;2.60;;;;;;;;;;5059527;28;20049;-80
2022/05/04 11:49:16;;;;;;;3.58;2.53;;;;;;;;;;5053724;28;20028;-80
2022/05/04 11:51:42;;;;;;;5.78;2.60;;;;;;;;;;5056910;28;20036;-80
2022/05/04 11:54:09;;;;;;;2.97;1.92;;;;;;;;;;5054466;28;20033;-80
2022/05/04 11:56:35;;;;;;;6.13;2.25;;;;;;;;;;5058609;28;20559;-79
2022/05/04 11:59:02;;;;;;;2.05;1.50;;;;;;;;;;5055346;28;20028;-79
2022/05/04 12:01:28;;;;;;;3.65;2.45;;;;;;;;;;5053545;28;20057;-80
2022/05/04 12:03:54;;;;;;;8.93;3.85;;;;;;;;;;5051299;28;20059;-81
2022/05/04 12:06:21;;;;;;;3.63;2.35;;;;;;;;;;5057892;28;20043;-80
2022/05/04 12:08:48;;;;;;;16.42;2.97;;;;;;;;;;5046382;28;20025;-80
2022/05/04 12:11:15;;;;;;;3.72;2.00;;;25.20;76.40;;;;;;5057712;28;20033;-80
2022/05/04 12:13:42;;;;;;;4.50;2.28;;;;;;;;;;5050913;28;20136;-80
2022/05/04 12:16:09;;;;;;;6.55;2.10;;;;;;;;;;5049637;28;20029;-79
2022/05/04 12:18:36;;;;;;;2.63;1.77;;;;;;;;;;5049876;28;20278;-80
2022/05/04 12:21:09;;;;;;;4.35;2.25;;;;;;;;;;5058908;28;20509;-80
2022/05/04 12:23:36;;;;;;;2.85;1.70;;;;;;;;;;5049524;28;20287;-79
2022/05/04 12:26:02;;;;;;;5.53;2.17;;;;;;;;;;5056147;28;20033;-80
2022/05/04 12:28:29;;;;;;;3.25;2.20;;;;;;;;;;5054419;28;20389;-79
2022/05/04 12:33:40;;;;;;;3.85;2.15;;;;;;;;;;5044587;28;20035;-80
2022/05/04 12:36:07;;;;;;;5.95;1.90;;;;;;;;;;5056923;28;20645;-80
2022/05/04 12:38:34;;;;;;;3.95;2.17;;;;;;;;;;5052604;28;20036;-79
2022/05/04 12:41:01;;;;;;;13.07;2.03;;;;;;;;;;5057053;28;20096;-81
2022/05/04 12:43:30;;;;;;;2.45;1.35;;;;;;;;;;5044753;28;20029;-80
2022/05/04 12:45:56;;;;;;;1.60;1.25;;;;;;;;;;5052731;28;20037;-80
2022/05/04 12:48:25;;;;;;;1.55;1.02;;;;;;;;;;5048275;28;20033;-80
2022/05/04 12:50:52;;;;;;;3.10;1.65;;;;;;;;;;5053415;28;20121;-79
2022/05/04 12:53:18;;;;;;;2.22;1.25;;;;;;;;;;5048747;28;20037;-78
2022/05/04 12:58:29;;;;;;;4.00;1.80;;;;;;;;;;5045057;28;20039;-79
2022/05/04 13:00:55;;;;;;;2.10;1.42;;;;;;;;;;5049687;28;20041;-81
2022/05/04 13:03:21;;;;;;;4.10;1.80;;;;;;;;;;5051585;28;20033;-81
2022/05/04 13:05:47;;;;;;;6.10;1.52;;;;;;;;;;5054725;28;20036;-80
2022/05/04 13:08:13;;;;;;;3.65;1.70;;;;;;;;;;5057341;28;20039;-81
2022/05/04 13:10:39;;;;;;;9.90;3.83;;;;;;;;;;5053805;28;20017;-80
2022/05/04 13:13:05;;;;;;;3.08;1.75;;;;;;;;;;5054278;28;20605;-81
2022/05/04 13:15:33;;;;;;;2.92;1.77;;;;;;;;;;5052674;28;20120;-80
2022/05/04 13:17:59;;;;;;;3.10;1.60;;;;;;;;;;5047699;28;20029;-81
2022/05/04 13:20:25;;;;;;;5.38;1.83;;;;;;;;;;5055854;28;20063;-80
2022/05/04 13:22:51;;;;;;;5.47;2.08;;;;;;;;;;5048104;28;20116;-83
2022/05/04 13:25:17;;;;;;;3.53;2.00;;;;;;;;;;5053295;28;20094;-82
2022/05/04 13:27:43;;;;;;;6.10;1.90;;;;;;;;;;5048822;28;20036;-82
2022/05/04 13:30:10;;;;;;;8.85;2.88;;;;;;;;;;5049222;28;20487;-83
2022/05/04 13:32:36;;;;;;;4.93;2.90;;;;;;;;;;5049971;28;20092;-82
2022/05/04 13:35:01;;;;;;;4.28;2.40;;;;;;;;;;5051606;28;20513;-82
2022/05/04 13:37:27;;;;;;;5.28;2.75;;;;;;;;;;5046953;28;20058;-82
2022/05/04 13:39:53;;;;;;;12.52;4.43;;;;;;;;;;5043015;28;20032;-82
2022/05/04 13:42:19;;;;;;;15.88;6.10;;;;;;;;;;5041667;28;20029;-83
2022/05/04 13:44:45;;;;;;;5.95;3.30;;;;;;;;;;5050008;28;20128;-82
2022/05/04 13:47:11;;;;;;;6.30;2.25;;;;;;;;;;5040146;28;20075;-80
2022/05/04 13:49:38;;;;;;;10.85;4.20;;;;;;;;;;5045965;28;20025;-83
2022/05/04 13:54:49;;;;;;;5.60;3.65;;;;;;;;;;5056461;28;20035;-82
2022/05/04 13:57:15;;;;;;;9.45;3.45;;;;;;;;;;5059875;28;20037;-81
2022/05/04 13:59:41;;;;;;;10.80;4.50;;;;;;;;;;5061914;28;20032;-81
2022/05/04 14:02:08;;;;;;;7.50;3.08;;;;;;;;;;5060172;28;20045;-81
2022/05/04 14:04:34;;;;;;;5.82;2.53;;;;;;;;;;5053718;28;20064;-81
2022/05/04 14:07:00;;;;;;;7.70;3.78;;;;;;;;;;5058681;28;20035;-81
2022/05/04 14:09:27;;;;;;;8.80;3.78;;;;;;;;;;5053228;28;20396;-81
2022/05/04 14:11:53;;;;;;;12.60;6.25;;;;;;;;;;5062801;28;20097;-81
2022/05/04 14:17:04;;;;;;;15.95;5.60;;;;;;;;;;5050681;28;20057;-81
2022/05/04 14:19:29;;;;;;;11.68;4.82;;;;;;;;;;5046458;28;20029;-80
2022/05/04 14:21:55;;;;;;;10.30;3.88;;;;;;;;;;5059121;28;20036;-79
2022/05/04 14:24:21;;;;;;;7.15;3.35;;;;;;;;;;5062167;28;20056;-79
2022/05/04 14:26:47;;;;;;;5.57;3.15;;;;;;;;;;5049289;28;20083;-80
2022/05/04 14:29:14;;;;;;;7.68;3.97;;;;;;;;;;5057073;28;20036;-80
2022/05/04 14:31:40;;;;;;;9.82;4.53;;;;;;;;;;5049432;28;20505;-80
2022/05/04 14:34:06;;;;;;;10.80;4.00;;;;;;;;;;5054705;28;20025;-81
2022/05/04 14:36:32;;;;;;;5.32;3.45;;;;;;;;;;5056495;28;20492;-80
2022/05/04 14:38:57;;;;;;;4.45;2.67;;;;;;;;;;5054004;28;20026;-80
2022/05/04 14:41:23;;;;;;;6.53;3.00;;;;;;;;;;5061530;28;20037;-79
2022/05/04 14:43:49;;;;;;;9.38;3.20;;;;;;;;;;5062749;28;20133;-80
2022/05/04 14:46:15;;;;;;;9.80;4.28;;;;;;;;;;5056947;28;20053;-80
2022/05/04 14:48:41;;;;;;;6.70;3.47;;;;;;;;;;5059722;28;20021;-80
2022/05/04 14:51:07;;;;;;;5.05;2.75;;;;;;;;;;5055835;28;20083;-81
2022/05/04 14:53:33;;;;;;;7.10;2.88;;;;;;;;;;5055089;28;20090;-81
2022/05/04 14:55:59;;;;;;;14.25;5.88;;;;;;;;;;5056685;28;20033;-80
2022/05/04 14:58:26;;;;;;;10.60;2.67;;;;;;;;;;5050960;28;20037;-79
2022/05/04 15:00:53;;;;;;;4.05;2.38;;;;;;;;;;5046939;28;20156;-80
2022/05/04 15:06:08;;;;;;;4.22;2.60;;;;;;;;;;5058987;28;20040;-81
2022/05/04 15:08:35;;;;;;;4.25;1.75;;;;;;;;;;5057030;28;20040;-82
2022/05/04 15:11:01;;;;;;;3.03;1.90;;;;;;;;;;5052408;28;20036;-80
2022/05/04 15:13:27;;;;;;;3.92;2.08;;;;;;;;;;5050531;28;20044;-80
2022/05/04 15:15:53;;;;;;;4.18;2.03;;;;;;;;;;5047124;28;20021;-80